ADDS METAR Data INFO
IDs: Format: Raw Decoded Include TAF

Data at: 1405 UTC 12 Dec 2017

KAIO 121355Z AUTO 00000KT 10SM CLR M10/M11 A3030 RMK AO2
KAIO 121335Z AUTO 00000KT 10SM CLR M10/M11 A3030 RMK AO2
KAIO 121315Z AUTO 00000KT 10SM CLR M10/M11 A3030 RMK AO2
KAIO 121255Z AUTO 32005KT 10SM CLR M10/M12 A3031 RMK AO2
KAIO 121235Z AUTO 32006KT 10SM CLR M10/M12 A3031 RMK AO2
KAIO 121215Z AUTO 31004KT 10SM CLR M10/M12 A3031 RMK AO2
KAIO 121155Z AUTO 29006KT 10SM CLR M10/M12 A3031 RMK AO2
KAIO 121135Z AUTO 33005KT 10SM CLR M10/M12 A3031 RMK AO2
KAIO 121115Z AUTO 33005KT 10SM CLR M10/M12 A3031 RMK AO2
KAIO 121055Z AUTO 31005KT 10SM CLR M10/M12 A3031 RMK AO2
KAIO 121035Z AUTO 31007KT 10SM CLR M09/M12 A3031 RMK AO2
KAIO 121015Z AUTO 32007G12KT 10SM CLR M09/M11 A3031 RMK AO2
KAIO 120955Z AUTO 32008KT 10SM CLR M09/M11 A3031 RMK AO2
KAIO 120935Z AUTO 32008KT 10SM CLR M09/M11 A3032 RMK AO2
KAIO 120915Z AUTO 32008KT 10SM CLR M09/M11 A3033 RMK AO2
KAIO 120855Z AUTO 34009KT 10SM CLR M09/M11 A3032 RMK AO2
KAIO 120835Z AUTO 33006KT 10SM CLR M08/M11 A3033 RMK AO2
KAIO 120815Z AUTO 34007KT 10SM CLR M08/M11 A3032 RMK AO2
KAIO 120755Z AUTO 33011KT 10SM CLR M08/M11 A3031 RMK AO2
KAIO 120735Z AUTO 34013KT 10SM CLR M08/M11 A3030 RMK AO2
KAIO 120715Z AUTO 34012KT 10SM CLR M07/M11 A3031 RMK AO2
KAIO 120655Z AUTO 34013KT 10SM CLR M07/M11 A3030 RMK AO2
KAIO 120635Z AUTO 34009KT 10SM CLR M07/M11 A3031 RMK AO2
KAIO 120615Z AUTO 35012G17KT 10SM CLR M06/M11 A3031 RMK AO2
KAIO 120555Z AUTO 34010KT 10SM CLR M06/M10 A3031 RMK AO2
KAIO 120535Z AUTO 35010KT 10SM CLR M06/M09 A3030 RMK AO2
KAIO 120515Z AUTO 35012G20KT 10SM CLR M05/M09 A3030 RMK AO2
KAIO 120455Z AUTO 34010G20KT 10SM CLR M04/M08 A3028 RMK AO2
KAIO 120435Z AUTO 35013KT 10SM CLR M04/M08 A3028 RMK AO2
KAIO 120415Z AUTO 35019KT 10SM CLR M03/M08 A3026 RMK AO2
KAIO 120355Z AUTO 34017G23KT 10SM CLR M03/M08 A3025 RMK AO2
KAIO 120335Z AUTO 35016G23KT 10SM CLR M03/M07 A3024 RMK AO2
KAIO 120315Z AUTO 35015G22KT 10SM CLR M02/M07 A3023 RMK AO2
KAIO 120255Z AUTO 35017G22KT 10SM CLR M02/M06 A3022 RMK AO2
KAIO 120235Z AUTO 34019G26KT 10SM SCT025 M01/M06 A3023 RMK AO2
KAIO 120215Z AUTO 35009KT 10SM BKN027 BKN033 M01/M05 A3021 RMK AO2
KAIO 120155Z AUTO 35011KT 10SM OVC028 M00/M05 A3020 RMK AO2
KAIO 120135Z AUTO 35008KT OVC029 00/M05 A3019 RMK AO2
KAIO 120115Z AUTO 35011KT 10SM OVC030 00/M05 A3018 RMK AO2
KAIO 120055Z AUTO 35011G21KT 10SM OVC031 00/M05 A3017 RMK AO2
KAIO 120035Z AUTO 35013G23KT 10SM BKN028 OVC032 01/M04 A3016 RMK AO2
KAIO 120015Z AUTO 35016G23KT 10SM BKN027 OVC032 02/M04 A3014 RMK AO2
KAIO 112355Z AUTO 34017G25KT 10SM OVC030 02/M04 A3013 RMK AO2
KAIO 112335Z AUTO 34016G28KT 10SM OVC027 03/M02 A3012 RMK AO2
KAIO 112315Z AUTO 34020G30KT 10SM OVC025 03/M02 A3010 RMK AO2
KAIO 112255Z AUTO 34024G37KT 10SM OVC025 03/M02 A3008 RMK AO2
KAIO 112235Z AUTO 34026G37KT 10SM OVC024 04/M02 A3006 RMK AO2
KAIO 112215Z AUTO 35022G28KT 10SM BKN027 OVC036 04/M01 A3005 RMK AO2
KAIO 112155Z AUTO 34019G33KT 10SM FEW024 BKN028 OVC034 05/M01 A3004 RMK AO2
KAIO 112135Z AUTO 33023G29KT 10SM BKN025 OVC031 05/00 A3002 RMK AO2
KAIO 112115Z AUTO 34020G27KT 10SM OVC025 05/00 A3000 RMK AO2
KAIO 112055Z AUTO 33019G28KT 10SM OVC026 06/00 A2999 RMK AO2
KAIO 112035Z AUTO 32018G27KT 10SM OVC026 06/00 A2997 RMK AO2
KAIO 112015Z AUTO 33024G35KT 10SM OVC028 06/01 A2996 RMK AO2
KAIO 111955Z AUTO 33024G31KT 10SM OVC028 07/01 A2995 RMK AO2
KAIO 111935Z AUTO 32024G32KT 10SM OVC030 07/01 A2994 RMK AO2
KAIO 111915Z AUTO 32019G32KT 10SM OVC031 07/01 A2994 RMK AO2
KAIO 111855Z AUTO 33020G31KT 10SM OVC030 07/01 A2993 RMK AO2
KAIO 111835Z AUTO 32020G29KT 10SM OVC031 07/00 A2992 RMK AO2
KAIO 111815Z AUTO 32019G36KT 10SM OVC033 07/00 A2991 RMK AO2
KAIO 111755Z AUTO 31023G33KT 10SM OVC033 07/M00 A2991 RMK AO2
KAIO 111735Z AUTO 31017G28KT 10SM OVC033 07/M00 A2992 RMK AO2
KAIO 111715Z AUTO 31019G29KT 10SM OVC034 07/M00 A2992 RMK AO2
KAIO 111655Z AUTO 32024G34KT 10SM BKN037 OVC045 08/M01 A2991 RMK AO2
KAIO 111635Z AUTO 32025G36KT 10SM FEW038 OVC044 08/M01 A2990 RMK AO2
KAIO 111615Z AUTO 31021G38KT 10SM OVC044 08/M01 A2990 RMK AO2
KAIO 111555Z AUTO 31025G33KT 10SM OVC042 08/M02 A2989 RMK AO2
KAIO 111535Z AUTO 32026G34KT 10SM BKN039 08/M02 A2988 RMK AO2
KAIO 111515Z AUTO 31019G32KT 10SM SCT038 07/M03 A2988 RMK AO2
KAIO 111455Z AUTO 31021G27KT 10SM CLR 07/M04 A2987 RMK AO2
KAIO 111435Z AUTO 31017G24KT 10SM CLR 06/M05 A2986 RMK AO2
KAIO 111415Z AUTO 30019G24KT 10SM CLR 05/M06 A2986 RMK AO2
KAIO 111355Z AUTO 29017G22KT 10SM CLR 04/M07 A2986 RMK AO2
KAIO 111335Z AUTO 29016G22KT 10SM CLR 04/M07 A2986 RMK AO2
KAIO 111315Z AUTO 27012G19KT 10SM CLR 04/M07 A2985 RMK AO2
KAIO 111255Z AUTO 26011KT 10SM CLR 02/M06 A2986 RMK AO2
KAIO 111235Z AUTO 26010KT 10SM CLR 02/M06 A2986 RMK AO2
KAIO 111215Z AUTO 26008KT 10SM CLR 02/M06 A2986 RMK AO2
KAIO 111155Z AUTO 26008KT 10SM CLR 02/M06 A2986 RMK AO2
KAIO 111135Z AUTO 26010G15KT 10SM CLR 02/M06 A2986 RMK AO2
KAIO 111115Z AUTO 26011KT 10SM CLR 01/M06 A2988 RMK AO2
KAIO 111055Z AUTO 23006KT 10SM CLR M01/M05 A2988 RMK AO2
KAIO 111035Z AUTO 16003KT 10SM CLR M02/M04 A2989 RMK AO2
KAIO 111015Z AUTO 00000KT 10SM CLR M02/M04 A2989 RMK AO2
KAIO 110955Z AUTO 22004KT 10SM CLR M02/M04 A2991 RMK AO2
KAIO 110935Z AUTO 21004KT 10SM CLR M01/M04 A2992 RMK AO2
KAIO 110915Z AUTO 21003KT 10SM CLR M01/M04 A2995 RMK AO2
KAIO 110855Z AUTO 25003KT 10SM FEW110 M01/M04 A2995 RMK AO2
KAIO 110835Z AUTO 22003KT 10SM FEW110 M00/M04 A2995 RMK AO2
KAIO 110815Z AUTO 00000KT 10SM CLR M01/M04 A2996 RMK AO2
KAIO 110755Z AUTO 00000KT 10SM CLR M01/M04 A2997 RMK AO2
KAIO 110735Z AUTO 00000KT 10SM CLR M01/M04 A2998 RMK AO2
KAIO 110715Z AUTO 23004KT 10SM CLR M01/M04 A2999 RMK AO2
KAIO 110655Z AUTO 22003KT 10SM CLR M01/M04 A3000 RMK AO2
KAIO 110635Z AUTO 22003KT 10SM CLR M02/M05 A3000 RMK AO2
KAIO 110615Z AUTO 20004KT 10SM CLR M02/M05 A3002 RMK AO2
KAIO 110555Z AUTO 00000KT 10SM CLR M04/M06 A3003 RMK AO2
KAIO 110535Z AUTO 21005KT 10SM CLR M02/M06 A3004 RMK AO2
KAIO 110515Z AUTO 23004KT 10SM CLR M02/M05 A3003 RMK AO2
KAIO 110455Z AUTO 21005KT 10SM CLR M02/M05 A3004 RMK AO2
KAIO 110435Z AUTO 22003KT 10SM CLR M01/M05 A3005 RMK AO2
KAIO 110415Z AUTO 21004KT 10SM CLR M02/M05 A3006 RMK AO2
KAIO 110355Z AUTO 21003KT 9SM CLR M02/M05 A3007 RMK AO2
KAIO 110335Z AUTO 21006KT 10SM CLR M03/M06 A3007 RMK AO2
KAIO 110315Z AUTO 00000KT 10SM CLR M03/M06 A3007 RMK AO2
KAIO 110255Z AUTO 00000KT 10SM CLR M03/M06 A3008 RMK AO2
KAIO 110235Z AUTO 00000KT 10SM CLR M02/M06 A3009 RMK AO2
KAIO 110215Z AUTO 00000KT 10SM CLR M02/M06 A3008 RMK AO2